createdAt,value
2016-04-18T00:00:46.070Z,18.26
2016-04-18T00:01:45.651Z,18.26
2016-04-18T00:02:45.623Z,18.26
2016-04-18T00:03:45.609Z,18.28
2016-04-18T00:04:45.582Z,18.2
2016-04-18T00:05:45.553Z,18.25
2016-04-18T00:06:45.540Z,18.26
2016-04-18T00:07:45.512Z,18.29
2016-04-18T00:08:46.139Z,18.29
2016-04-18T00:09:45.501Z,18.26
2016-04-18T00:10:45.472Z,18.28
2016-04-18T00:11:45.444Z,18.28
2016-04-18T00:12:45.414Z,18.26
2016-04-18T00:13:45.417Z,18.29
2016-04-18T00:14:45.410Z,18.29
2016-04-18T00:15:45.439Z,18.23
2016-04-18T00:16:46.173Z,18.23
2016-04-18T00:17:45.485Z,18.23
2016-04-18T00:18:45.499Z,18.23
2016-04-18T00:19:45.516Z,18.28
2016-04-18T00:20:45.502Z,18.31
2016-04-18T00:21:45.677Z,18.21
2016-04-18T00:22:45.507Z,18.23
2016-04-18T00:23:45.354Z,18.32
2016-04-18T00:24:46.430Z,18.28
2016-04-18T00:25:45.469Z,18.32
2016-04-18T00:26:45.478Z,18.26
2016-04-18T00:27:45.455Z,18.29
2016-04-18T00:28:45.424Z,18.31
2016-04-18T00:29:45.417Z,18.23
2016-04-18T00:30:45.392Z,18.25
2016-04-18T00:31:45.381Z,18.25
2016-04-18T00:32:45.682Z,18.2
2016-04-18T00:33:45.343Z,18.31
2016-04-18T00:34:45.332Z,18.31
2016-04-18T00:35:45.320Z,18.21
2016-04-18T00:36:45.293Z,18.16
2016-04-18T00:37:45.280Z,18.21
2016-04-18T00:38:45.347Z,18.21
2016-04-18T00:39:45.240Z,18.17
2016-04-18T00:40:45.665Z,18.19
2016-04-18T00:41:45.199Z,18.19
2016-04-18T00:42:45.188Z,18.19
2016-04-18T00:43:45.159Z,18.21
2016-04-18T00:44:45.147Z,18.19
2016-04-18T00:45:45.119Z,18.19
2016-04-18T00:46:45.105Z,18.2
2016-04-18T00:47:45.092Z,18.21
2016-04-18T00:48:45.063Z,18.17
2016-04-18T00:49:45.051Z,18.13
2016-04-18T00:50:45.023Z,18.2
2016-04-18T00:51:45.010Z,18.11
2016-04-18T00:52:44.997Z,18.13
2016-04-18T00:53:44.811Z,18.14
2016-04-18T00:54:44.939Z,18.13
2016-04-18T00:55:44.927Z,18.13
2016-04-18T00:56:44.914Z,18.14
2016-04-18T00:57:44.901Z,18.13
2016-04-18T00:58:44.888Z,18.13
2016-04-18T00:59:44.860Z,18.1
2016-04-18T01:00:44.831Z,18.11
2016-04-18T01:01:44.818Z,18.07
2016-04-18T01:02:44.821Z,18.09
2016-04-18T01:03:44.792Z,18.07
2016-04-18T01:04:44.763Z,18.05
2016-04-18T01:05:44.751Z,18.1
2016-04-18T01:06:44.566Z,18.07
2016-04-18T01:07:44.709Z,18.11
2016-04-18T01:08:44.696Z,18.07
2016-04-18T01:09:44.667Z,18.07
2016-04-18T01:10:44.639Z,18.07
2016-04-18T01:11:44.642Z,18.07
2016-04-18T01:12:44.598Z,18.04
2016-04-18T01:13:44.740Z,18.11
2016-04-18T01:14:44.556Z,18.07
2016-04-18T01:15:44.558Z,18.02
2016-04-18T01:16:44.530Z,18.11
2016-04-18T01:17:44.501Z,18.09
2016-04-18T01:18:44.488Z,18.04
2016-04-18T01:19:44.461Z,18.04
2016-04-18T01:20:44.447Z,18.04
2016-04-18T01:21:44.715Z,18.01
2016-04-18T01:22:44.406Z,18.05
2016-04-18T01:23:44.392Z,17.98
2016-04-18T01:24:44.363Z,18.1
2016-04-18T01:25:44.352Z,18.05
2016-04-18T01:26:44.339Z,17.98
2016-04-18T01:27:44.309Z,18.1
2016-04-18T01:28:44.328Z,18.14
2016-04-18T01:29:44.737Z,18.04
2016-04-18T01:30:44.255Z,18.09
2016-04-18T01:31:44.258Z,18.09
2016-04-18T01:32:44.213Z,18.1
2016-04-18T01:33:44.201Z,17.99
2016-04-18T01:34:44.172Z,18.07
2016-04-18T01:35:44.144Z,18.1
2016-04-18T01:36:44.131Z,18.04
2016-04-18T01:37:44.774Z,18.02
2016-04-18T01:38:44.089Z,18.01
2016-04-18T01:39:44.076Z,18.04
2016-04-18T01:40:44.062Z,18.02
2016-04-18T01:41:44.035Z,18.05
2016-04-18T01:42:44.022Z,18.04
2016-04-18T01:43:44.009Z,17.99
2016-04-18T01:44:43.981Z,17.94
2016-04-18T01:45:44.031Z,17.99
2016-04-18T01:46:43.954Z,17.99
2016-04-18T01:47:43.911Z,17.99
2016-04-18T01:48:43.897Z,18.02
2016-04-18T01:49:43.884Z,17.99
2016-04-18T01:50:43.871Z,17.98
2016-04-18T01:51:43.858Z,18.02
2016-04-18T01:52:43.845Z,18.04
2016-04-18T01:53:44.067Z,17.99
2016-04-18T01:54:43.788Z,18.04
2016-04-18T01:55:43.775Z,17.95
2016-04-18T01:56:43.763Z,17.96
2016-04-18T01:57:43.734Z,17.95
2016-04-18T01:58:43.705Z,17.99
2016-04-18T01:59:43.693Z,18.02
2016-04-18T02:00:43.695Z,17.96
2016-04-18T02:01:44.057Z,17.98
2016-04-18T02:02:43.638Z,17.99
2016-04-18T02:03:43.609Z,17.96
2016-04-18T02:04:43.597Z,17.99
2016-04-18T02:05:43.599Z,17.99
2016-04-18T02:06:43.554Z,17.98
2016-04-18T02:07:43.542Z,18.04
2016-04-18T02:08:43.624Z,17.99
2016-04-18T02:09:43.501Z,17.92
2016-04-18T02:10:43.487Z,17.95
2016-04-18T02:11:43.475Z,17.98
2016-04-18T02:12:43.446Z,17.92
2016-04-18T02:13:43.434Z,18.02
2016-04-18T02:14:43.404Z,17.96
2016-04-18T02:15:43.407Z,17.98
2016-04-18T02:16:43.676Z,18.04
2016-04-18T02:17:43.350Z,17.94
2016-04-18T02:18:43.322Z,17.98
2016-04-18T02:19:43.293Z,18.04
2016-04-18T02:20:43.281Z,17.99
2016-04-18T02:21:43.267Z,18.04
2016-04-18T02:22:43.239Z,17.87
2016-04-18T02:23:43.225Z,17.98
2016-04-18T02:24:43.650Z,17.92
2016-04-18T02:25:43.199Z,17.86
2016-04-18T02:26:43.172Z,18.01
2016-04-18T02:27:43.158Z,17.86
2016-04-18T02:28:43.130Z,17.99
2016-04-18T02:29:43.117Z,17.81
2016-04-18T02:30:43.088Z,17.84
2016-04-18T02:31:43.075Z,18.02
2016-04-18T02:32:43.657Z,18.04
2016-04-18T02:33:43.049Z,17.86
2016-04-18T02:34:43.021Z,17.91
2016-04-18T02:35:43.008Z,18.04
2016-04-18T02:36:42.979Z,18.01
2016-04-18T02:37:42.966Z,17.95
2016-04-18T02:38:42.937Z,17.99
2016-04-18T02:39:42.926Z,17.98
2016-04-18T02:40:42.975Z,17.98
2016-04-18T02:41:42.884Z,17.96
2016-04-18T02:42:42.871Z,18.02
2016-04-18T02:43:42.842Z,17.98
2016-04-18T02:44:42.813Z,17.92
2016-04-18T02:45:42.800Z,17.86
2016-04-18T02:46:42.787Z,17.99
2016-04-18T02:47:42.759Z,17.99
2016-04-18T02:48:43.699Z,17.94
2016-04-18T02:49:42.733Z,17.87
2016-04-18T02:50:42.705Z,17.94
2016-04-18T02:51:42.676Z,17.95
2016-04-18T02:52:42.663Z,17.95
2016-04-18T02:53:42.650Z,17.94
2016-04-18T02:54:42.637Z,17.94
2016-04-18T02:55:42.609Z,17.95
2016-04-18T02:56:42.939Z,17.89
2016-04-18T02:57:42.567Z,17.87
2016-04-18T02:58:42.554Z,17.92
2016-04-18T02:59:42.526Z,17.92
2016-04-18T03:00:42.512Z,17.92
2016-04-18T03:01:42.500Z,17.92
2016-04-18T03:02:42.471Z,17.95
2016-04-18T03:03:42.552Z,17.84
2016-04-18T03:04:42.429Z,17.95
2016-04-18T03:05:42.416Z,17.84
2016-04-18T03:06:42.388Z,17.83
2016-04-18T03:07:42.376Z,17.81
2016-04-18T03:08:42.363Z,17.86
2016-04-18T03:09:42.335Z,17.86
2016-04-18T03:10:42.321Z,17.84
2016-04-18T03:11:42.558Z,17.8
2016-04-18T03:12:42.279Z,17.87
2016-04-18T03:13:42.251Z,17.83
2016-04-18T03:14:42.238Z,17.8
2016-04-18T03:15:42.226Z,17.77
2016-04-18T03:16:42.196Z,17.77
2016-04-18T03:17:42.184Z,17.87
2016-04-18T03:18:42.171Z,17.87
2016-04-18T03:19:42.642Z,17.83
2016-04-18T03:20:42.145Z,17.89
2016-04-18T03:21:42.116Z,17.8
2016-04-18T03:22:42.087Z,17.86
2016-04-18T03:23:42.075Z,17.8
2016-04-18T03:24:42.047Z,17.76
2016-04-18T03:25:42.017Z,17.84
2016-04-18T03:26:42.005Z,17.83
2016-04-18T03:27:42.647Z,17.8
2016-04-18T03:28:41.963Z,17.79
2016-04-18T03:29:41.949Z,17.79
2016-04-18T03:30:41.921Z,17.8
2016-04-18T03:31:41.908Z,17.8
2016-04-18T03:32:41.896Z,17.76
2016-04-18T03:33:41.867Z,17.79
2016-04-18T03:34:41.854Z,17.81
2016-04-18T03:35:41.872Z,17.8
2016-04-18T03:36:41.812Z,17.77
2016-04-18T03:37:41.784Z,17.87
2016-04-18T03:38:41.771Z,17.83
2016-04-18T03:39:41.743Z,17.74
2016-04-18T03:40:41.730Z,17.84
2016-04-18T03:41:41.717Z,17.84
2016-04-18T03:42:41.688Z,17.77
2016-04-18T03:43:41.894Z,17.74
2016-04-18T03:44:41.646Z,17.76
2016-04-18T03:45:41.634Z,17.76
2016-04-18T03:46:41.605Z,17.73
2016-04-18T03:47:41.593Z,17.76
2016-04-18T03:48:41.579Z,17.74
2016-04-18T03:49:41.551Z,17.77
2016-04-18T03:50:41.553Z,17.74
2016-04-18T03:51:42.603Z,17.73
2016-04-18T03:52:41.497Z,17.76
2016-04-18T03:53:41.467Z,17.77
2016-04-18T03:54:41.502Z,17.74
2016-04-18T03:55:41.441Z,17.7
2016-04-18T03:56:41.413Z,17.68
2016-04-18T03:57:41.400Z,17.74
2016-04-18T03:58:41.388Z,17.62
2016-04-18T03:59:41.375Z,17.63
2016-04-18T04:00:41.346Z,17.7
2016-04-18T04:01:41.317Z,17.68
2016-04-18T04:02:41.305Z,17.66
2016-04-18T04:03:41.277Z,17.65
2016-04-18T04:04:41.263Z,17.73
2016-04-18T04:05:41.235Z,17.66
2016-04-18T04:06:41.205Z,17.66
2016-04-18T04:07:41.208Z,17.65
2016-04-18T04:08:41.180Z,17.74
2016-04-18T04:09:41.073Z,17.65
2016-04-18T04:10:41.138Z,17.66
2016-04-18T04:11:41.110Z,17.6
2016-04-18T04:12:41.113Z,17.68
2016-04-18T04:13:41.068Z,17.63
2016-04-18T04:14:41.056Z,17.63
2016-04-18T04:15:41.043Z,17.65
2016-04-18T04:16:41.029Z,17.63
2016-04-18T04:17:41.001Z,17.58
2016-04-18T04:18:40.988Z,17.62
2016-04-18T04:19:40.959Z,17.58
2016-04-18T04:20:40.947Z,17.63
2016-04-18T04:21:40.933Z,17.51
2016-04-18T04:22:40.937Z,17.63
2016-04-18T04:23:40.892Z,17.63
2016-04-18T04:24:40.926Z,17.58
2016-04-18T04:25:40.851Z,17.6
2016-04-18T04:26:40.822Z,17.66
2016-04-18T04:27:40.825Z,17.57
2016-04-18T04:28:40.796Z,17.63
2016-04-18T04:29:40.768Z,17.62
2016-04-18T04:30:40.755Z,17.6
2016-04-18T04:31:40.742Z,17.65
2016-04-18T04:32:40.900Z,17.6
2016-04-18T04:33:40.685Z,17.63
2016-04-18T04:34:40.672Z,17.6
2016-04-18T04:35:40.643Z,17.65
2016-04-18T04:36:40.630Z,17.57
2016-04-18T04:37:40.601Z,17.57
2016-04-18T04:38:40.588Z,17.58
2016-04-18T04:39:40.685Z,17.58
2016-04-18T04:40:40.954Z,17.58
2016-04-18T04:41:40.519Z,17.45
2016-04-18T04:42:40.521Z,17.57
2016-04-18T04:43:40.493Z,17.55
2016-04-18T04:44:40.479Z,17.54
2016-04-18T04:45:40.451Z,17.55
2016-04-18T04:46:40.437Z,17.54
2016-04-18T04:47:40.408Z,17.57
2016-04-18T04:48:40.942Z,17.57
2016-04-18T04:49:40.367Z,17.57
2016-04-18T04:50:40.355Z,17.55
2016-04-18T04:51:40.342Z,17.58
2016-04-18T04:52:40.328Z,17.57
2016-04-18T04:53:40.285Z,17.62
2016-04-18T04:54:40.303Z,17.55
2016-04-18T04:55:40.258Z,17.57
2016-04-18T04:56:40.949Z,17.53
2016-04-18T04:57:40.217Z,17.54
2016-04-18T04:58:40.204Z,17.6
2016-04-18T04:59:40.176Z,17.57
2016-04-18T05:00:40.147Z,17.46
2016-04-18T05:01:40.149Z,17.45
2016-04-18T05:02:40.121Z,17.47
2016-04-18T05:03:40.092Z,17.42
2016-04-18T05:04:40.235Z,17.49
2016-04-18T05:05:40.067Z,17.57
2016-04-18T05:06:40.038Z,17.43
2016-04-18T05:07:40.026Z,17.45
2016-04-18T05:08:39.996Z,17.45
2016-04-18T05:09:40.203Z,17.46
2016-04-18T05:10:39.970Z,17.46
2016-04-18T05:11:39.942Z,17.45
2016-04-18T05:12:40.226Z,17.49
2016-04-18T05:13:39.900Z,17.45
2016-04-18T05:14:39.887Z,17.47
2016-04-18T05:15:39.875Z,17.4
2016-04-18T05:16:39.847Z,17.45
2016-04-18T05:17:39.817Z,17.46
2016-04-18T05:18:39.805Z,17.43
2016-04-18T05:19:39.838Z,17.43
2016-04-18T05:20:39.763Z,17.53
2016-04-18T05:21:39.750Z,17.46
2016-04-18T05:22:39.738Z,17.45
2016-04-18T05:23:39.708Z,17.45
2016-04-18T05:24:39.586Z,17.45
2016-04-18T05:25:39.667Z,17.43
2016-04-18T05:26:39.654Z,17.47
2016-04-18T05:27:39.829Z,17.43
2016-04-18T05:28:39.612Z,17.49
2016-04-18T05:29:39.605Z,17.42
2016-04-18T05:30:39.561Z,17.43
2016-04-18T05:31:39.549Z,17.42
2016-04-18T05:32:39.536Z,17.45
2016-04-18T05:33:39.522Z,17.43
2016-04-18T05:34:39.494Z,17.45
2016-04-18T05:35:39.824Z,17.43
2016-04-18T05:36:39.452Z,17.47
2016-04-18T05:37:39.424Z,17.46
2016-04-18T05:38:39.427Z,17.42
2016-04-18T05:39:39.211Z,17.47
2016-04-18T05:40:39.385Z,17.45
2016-04-18T05:41:39.357Z,17.42
2016-04-18T05:42:39.359Z,17.51
2016-04-18T05:43:39.862Z,17.43
2016-04-18T05:44:39.286Z,17.46
2016-04-18T05:45:39.273Z,17.47
2016-04-18T05:46:39.120Z,17.38
2016-04-18T05:47:39.231Z,17.46
2016-04-18T05:48:39.220Z,17.43
2016-04-18T05:49:39.190Z,17.53
2016-04-18T05:50:39.178Z,17.38
2016-04-18T05:51:39.867Z,17.49
2016-04-18T05:52:39.152Z,17.55
2016-04-18T05:53:39.123Z,17.49
2016-04-18T05:54:39.001Z,17.43
2016-04-18T05:55:39.067Z,17.45
2016-04-18T05:56:39.070Z,17.53
2016-04-18T05:57:39.072Z,17.58
2016-04-18T05:58:39.012Z,17.47
2016-04-18T05:59:39.155Z,17.45
2016-04-18T06:00:38.986Z,17.51
2016-04-18T06:01:38.972Z,17.55
2016-04-18T06:02:38.944Z,17.45
2016-04-18T06:03:38.916Z,17.57
2016-04-18T06:04:38.919Z,17.55
2016-04-18T06:05:38.875Z,17.46
2016-04-18T06:06:38.861Z,17.43
2016-04-18T06:07:39.146Z,17.55
2016-04-18T06:08:38.820Z,17.47
2016-04-18T06:09:38.838Z,17.58
2016-04-18T06:10:38.778Z,17.45
2016-04-18T06:11:38.765Z,17.53
2016-04-18T06:12:38.737Z,17.49
2016-04-18T06:13:38.724Z,17.46
2016-04-18T06:14:38.758Z,17.4
2016-04-18T06:15:38.682Z,17.49
2016-04-18T06:16:38.670Z,17.49
2016-04-18T06:17:38.640Z,17.46
2016-04-18T06:18:38.629Z,17.46
2016-04-18T06:19:38.631Z,17.49
2016-04-18T06:20:38.587Z,17.49
2016-04-18T06:21:38.589Z,17.55
2016-04-18T06:22:38.826Z,17.51
2016-04-18T06:23:38.516Z,17.49
2016-04-18T06:24:38.472Z,17.46
2016-04-18T06:25:38.491Z,17.43
2016-04-18T06:26:38.478Z,17.47
2016-04-18T06:27:38.450Z,17.49
2016-04-18T06:28:38.420Z,17.46
2016-04-18T06:29:38.408Z,17.47
2016-04-18T06:30:38.739Z,17.46
2016-04-18T06:31:38.366Z,17.49
2016-04-18T06:32:38.353Z,17.49
2016-04-18T06:33:38.355Z,17.47
2016-04-18T06:34:38.312Z,17.51
2016-04-18T06:35:38.299Z,17.43
2016-04-18T06:36:38.271Z,17.46
2016-04-18T06:37:38.258Z,17.51
2016-04-18T06:38:38.791Z,17.51
2016-04-18T06:39:38.231Z,17.45
2016-04-18T06:40:38.203Z,17.55
2016-04-18T06:41:38.174Z,17.47
2016-04-18T06:42:38.162Z,17.49
2016-04-18T06:43:38.133Z,17.46
2016-04-18T06:44:38.135Z,17.53
2016-04-18T06:45:38.091Z,17.49
2016-04-18T06:46:38.765Z,17.38
2016-04-18T06:47:38.065Z,17.46
2016-04-18T06:48:38.037Z,17.43
2016-04-18T06:49:38.009Z,17.51
2016-04-18T06:50:38.012Z,17.46
2016-04-18T06:51:37.982Z,17.45
2016-04-18T06:52:37.954Z,17.47
2016-04-18T06:53:37.941Z,17.51
2016-04-18T06:54:38.084Z,17.46
2016-04-18T06:55:37.900Z,17.51
2016-04-18T06:56:37.887Z,17.46
2016-04-18T06:57:37.858Z,17.49
2016-04-18T06:58:37.830Z,17.51
2016-04-18T06:59:37.832Z,17.49
2016-04-18T07:00:37.803Z,17.49
2016-04-18T07:01:37.774Z,17.46
2016-04-18T07:02:38.058Z,17.47
2016-04-18T07:03:37.733Z,17.43
2016-04-18T07:04:37.735Z,17.58
2016-04-18T07:05:37.707Z,17.49
2016-04-18T07:06:37.679Z,17.51
2016-04-18T07:07:37.666Z,17.51
2016-04-18T07:08:37.653Z,17.47
2016-04-18T07:09:37.625Z,17.47
2016-04-18T07:10:37.612Z,17.45
2016-04-18T07:11:37.583Z,17.55
2016-04-18T07:12:37.570Z,17.53
2016-04-18T07:13:37.541Z,17.62
2016-04-18T07:14:37.528Z,17.6
2016-04-18T07:15:37.516Z,17.6
2016-04-18T07:16:37.487Z,17.49
2016-04-18T07:17:37.474Z,17.51
2016-04-18T07:18:37.445Z,17.46
2016-04-18T07:19:37.432Z,17.58
2016-04-18T07:20:37.419Z,17.57
2016-04-18T07:21:37.398Z,17.71
2016-04-18T07:22:37.369Z,17.79
2016-04-18T07:23:37.372Z,18.17
2016-04-18T07:24:37.344Z,18.54
2016-04-18T07:25:37.316Z,19.06
2016-04-18T07:26:37.318Z,19.38
2016-04-18T07:27:37.571Z,19.8
2016-04-18T07:28:37.261Z,20.2
2016-04-18T07:29:37.247Z,20.63
2016-04-18T07:30:37.235Z,20.93
2016-04-18T07:31:37.207Z,20.97
2016-04-18T07:32:37.193Z,21.12
2016-04-18T07:33:37.165Z,21.26
2016-04-18T07:34:37.168Z,21.26
2016-04-18T07:35:37.138Z,21.28
2016-04-18T07:36:37.110Z,21.36
2016-04-18T07:37:37.097Z,21.26
2016-04-18T07:38:37.084Z,21.24
2016-04-18T07:39:37.056Z,21.31
2016-04-18T07:40:37.058Z,21.31
2016-04-18T07:41:37.045Z,21.26
2016-04-18T07:42:37.017Z,21.26
2016-04-18T07:43:37.191Z,21.12
2016-04-18T07:44:36.975Z,21.11
2016-04-18T07:45:36.962Z,20.85
2016-04-18T07:46:36.933Z,20.75
2016-04-18T07:47:36.936Z,20.48
2016-04-18T07:48:36.908Z,20.31
2016-04-18T07:49:36.895Z,20.17
2016-04-18T07:50:36.867Z,20.15
2016-04-18T07:51:37.120Z,20.19
2016-04-18T07:52:36.841Z,20.48
2016-04-18T07:53:36.844Z,20.64
2016-04-18T07:54:36.799Z,20.83
2016-04-18T07:55:36.786Z,21.16
2016-04-18T07:56:36.773Z,21.4
2016-04-18T07:57:36.760Z,21.68
2016-04-18T07:58:36.732Z,22.06
2016-04-18T07:59:37.188Z,22.39
2016-04-18T08:00:36.705Z,22.7
2016-04-18T08:01:36.677Z,22.93
2016-04-18T08:02:36.664Z,23.03
2016-04-18T08:03:36.652Z,23.07
2016-04-18T08:04:36.638Z,23.12
2016-04-18T08:05:36.610Z,22.99
2016-04-18T08:06:36.596Z,22.91
2016-04-18T08:07:37.178Z,22.89
2016-04-18T08:08:36.571Z,22.84
2016-04-18T08:09:36.543Z,22.78
2016-04-18T08:10:36.529Z,22.61
2016-04-18T08:11:36.517Z,22.48
2016-04-18T08:12:36.503Z,22.54
2016-04-18T08:13:36.490Z,22.33
2016-04-18T08:14:36.478Z,22.23
2016-04-18T08:15:36.449Z,22.2
2016-04-18T08:16:36.436Z,22.2
2016-04-18T08:17:36.423Z,22.51
2016-04-18T08:18:36.411Z,23
2016-04-18T08:19:36.381Z,23.44
2016-04-18T08:20:36.370Z,23.81
2016-04-18T08:21:36.387Z,23.9
2016-04-18T08:22:36.344Z,23.97
2016-04-18T08:23:36.425Z,23.93
2016-04-18T08:24:36.303Z,23.84
2016-04-18T08:25:36.305Z,23.74
2016-04-18T08:26:36.260Z,23.57
2016-04-18T08:27:36.263Z,23.6
2016-04-18T08:28:36.234Z,23.56
2016-04-18T08:29:36.221Z,23.5
2016-04-18T08:30:36.208Z,23.47
2016-04-18T08:31:36.446Z,23.25
2016-04-18T08:32:36.183Z,23.23
2016-04-18T08:33:36.155Z,23.04
2016-04-18T08:34:36.141Z,22.86
2016-04-18T08:35:36.128Z,22.72
2016-04-18T08:36:36.116Z,22.46
2016-04-18T08:37:36.087Z,22.35
2016-04-18T08:38:36.027Z,22.33
2016-04-18T08:39:36.468Z,22.15
2016-04-18T08:40:36.048Z,22.09
2016-04-18T08:41:36.035Z,21.94
2016-04-18T08:42:36.006Z,21.75
2016-04-18T08:43:35.993Z,21.7
2016-04-18T08:44:35.981Z,21.56
2016-04-18T08:45:35.968Z,21.53
2016-04-18T08:46:36.048Z,21.53
2016-04-18T08:47:35.926Z,21.4
2016-04-18T08:48:35.913Z,21.38
2016-04-18T08:49:35.900Z,21.33
2016-04-18T08:50:35.887Z,21.26
2016-04-18T08:51:35.859Z,21.24
2016-04-18T08:52:35.846Z,21.16
2016-04-18T08:53:35.848Z,21.11
2016-04-18T08:54:36.351Z,21.12
2016-04-18T08:55:35.901Z,21
2016-04-18T08:56:35.794Z,20.98
2016-04-18T08:57:35.765Z,21
2016-04-18T08:58:35.752Z,21.03
2016-04-18T08:59:35.724Z,21.03
2016-04-18T09:00:35.710Z,20.98
2016-04-18T09:01:35.699Z,20.81
2016-04-18T09:02:36.076Z,20.83
2016-04-18T09:03:35.672Z,20.88
2016-04-18T09:04:35.643Z,20.87
2016-04-18T09:05:35.631Z,20.73
2016-04-18T09:06:35.618Z,20.76
2016-04-18T09:07:35.605Z,20.71
2016-04-18T09:08:35.577Z,20.63
2016-04-18T09:09:35.564Z,20.6
2016-04-18T09:10:36.409Z,20.6
2016-04-18T09:11:35.537Z,20.5
2016-04-18T09:12:35.525Z,20.5
2016-04-18T09:13:35.495Z,20.5
2016-04-18T09:14:35.484Z,20.31
2016-04-18T09:15:35.470Z,20.25
2016-04-18T09:16:35.457Z,20.2
2016-04-18T09:17:35.444Z,20.17
2016-04-18T09:18:36.087Z,20.07
2016-04-18T09:19:35.403Z,20.15
2016-04-18T09:20:35.390Z,20.1
2016-04-18T09:21:35.402Z,20.13
2016-04-18T09:22:35.415Z,19.94
2016-04-18T09:23:35.445Z,19.98
2016-04-18T09:24:35.474Z,19.95
2016-04-18T09:25:35.626Z,19.86
2016-04-18T09:26:35.593Z,19.86
2016-04-18T09:27:35.502Z,19.86
2016-04-18T09:28:35.489Z,19.82
2016-04-18T09:29:35.506Z,19.8
2016-04-18T09:30:35.494Z,19.75
2016-04-18T09:31:35.490Z,19.68
2016-04-18T09:32:35.483Z,19.71
2016-04-18T09:33:35.459Z,19.7
2016-04-18T09:34:35.685Z,19.6
2016-04-18T09:35:35.429Z,19.6
2016-04-18T09:36:35.419Z,19.62
2016-04-18T09:37:35.282Z,19.61
2016-04-18T09:38:35.382Z,19.52
2016-04-18T09:39:35.370Z,19.57
2016-04-18T09:40:35.250Z,19.53
2016-04-18T09:41:35.332Z,19.43
2016-04-18T09:42:35.742Z,19.43
2016-04-18T09:43:35.307Z,19.46
2016-04-18T09:44:35.310Z,19.4
2016-04-18T09:45:35.283Z,19.46
2016-04-18T09:46:35.255Z,19.43
2016-04-18T09:47:35.320Z,19.31
2016-04-18T09:48:35.245Z,19.32
2016-04-18T09:49:35.310Z,19.38
2016-04-18T09:50:35.202Z,19.25
2016-04-18T09:51:35.174Z,19.27
2016-04-18T09:52:35.177Z,19.25
2016-04-18T09:53:35.132Z,19.28
2016-04-18T09:54:35.135Z,19.32
2016-04-18T09:55:35.263Z,19.27
2016-04-18T09:56:35.079Z,19.3
2016-04-18T09:57:35.316Z,19.21
2016-04-18T09:58:35.053Z,19.23
2016-04-18T09:59:35.024Z,19.13
2016-04-18T10:00:35.012Z,19.17
2016-04-18T10:01:34.998Z,19.15
2016-04-18T10:02:35.032Z,19.4
2016-04-18T10:03:34.956Z,19.61
2016-04-18T10:04:34.944Z,19.85
2016-04-18T10:05:35.322Z,19.98
2016-04-18T10:06:34.903Z,20.3
2016-04-18T10:07:34.734Z,20.48
2016-04-18T10:08:34.892Z,20.72
2016-04-18T10:09:34.848Z,20.98
2016-04-18T10:10:34.914Z,21.4
2016-04-18T10:11:34.806Z,21.61
2016-04-18T10:12:34.859Z,21.9
2016-04-18T10:13:35.331Z,22.27
2016-04-18T10:14:34.755Z,22.45
2016-04-18T10:15:34.742Z,22.64
2016-04-18T10:16:34.730Z,22.69
2016-04-18T10:17:34.717Z,22.74
2016-04-18T10:18:34.719Z,22.72
2016-04-18T10:19:34.690Z,22.7
2016-04-18T10:20:34.677Z,22.72
2016-04-18T10:21:34.493Z,22.69
2016-04-18T10:22:34.621Z,22.61
2016-04-18T10:23:34.763Z,22.51
2016-04-18T10:24:38.891Z,22.36
2016-04-18T10:25:34.582Z,22.27
2016-04-18T10:26:34.552Z,22.19
2016-04-18T10:27:34.555Z,22.17
2016-04-18T10:28:34.527Z,22.04
2016-04-18T10:29:34.608Z,22.11
2016-04-18T10:30:34.501Z,22.02
2016-04-18T10:31:34.473Z,21.93
2016-04-18T10:32:34.459Z,21.86
2016-04-18T10:33:34.446Z,21.75
2016-04-18T10:34:34.418Z,21.7
2016-04-18T10:35:34.406Z,21.61
2016-04-18T10:36:34.393Z,21.59
2016-04-18T10:37:34.614Z,21.51
2016-04-18T10:38:34.367Z,21.51
2016-04-18T10:39:34.337Z,21.56
2016-04-18T10:40:34.326Z,21.51
2016-04-18T10:41:34.311Z,21.59
2016-04-18T10:42:34.392Z,21.71
2016-04-18T10:43:34.270Z,21.75
2016-04-18T10:44:34.258Z,21.74
2016-04-18T10:45:34.650Z,21.86
2016-04-18T10:46:34.232Z,21.85
2016-04-18T10:47:34.438Z,21.98
2016-04-18T10:48:34.191Z,21.86
2016-04-18T10:49:34.178Z,21.75
2016-04-18T10:50:34.181Z,21.82
2016-04-18T10:51:35.119Z,21.73
2016-04-18T10:52:34.122Z,21.74
2016-04-18T10:53:34.125Z,21.83
2016-04-18T10:54:34.097Z,21.86
2016-04-18T10:55:34.084Z,21.9
2016-04-18T10:56:38.212Z,21.79
2016-04-18T10:57:34.058Z,21.77
2016-04-18T10:58:34.029Z,21.71
2016-04-18T10:59:34.017Z,21.63
2016-04-18T11:00:34.004Z,21.68
2016-04-18T11:01:33.991Z,21.66
2016-04-18T11:02:33.962Z,21.77
2016-04-18T11:03:33.949Z,21.73
2016-04-18T11:04:33.920Z,21.79
2016-04-18T11:05:33.923Z,21.77
2016-04-18T11:06:33.910Z,21.67
2016-04-18T11:07:33.881Z,21.61
2016-04-18T11:08:33.869Z,21.64
2016-04-18T11:09:33.872Z,21.58
2016-04-18T11:10:33.843Z,21.53
2016-04-18T11:11:33.830Z,21.51
2016-04-18T11:12:33.801Z,21.49
2016-04-18T11:13:33.804Z,21.37
2016-04-18T11:14:33.775Z,21.37
2016-04-18T11:15:33.764Z,21.34
2016-04-18T11:16:33.734Z,21.3
2016-04-18T11:17:33.737Z,21.22
2016-04-18T11:18:33.708Z,21.13
2016-04-18T11:19:33.695Z,21.16
2016-04-18T11:20:33.683Z,21.11
2016-04-18T11:21:33.654Z,21.18
2016-04-18T11:22:33.642Z,21.13
2016-04-18T11:23:33.628Z,21.18
2016-04-18T11:24:33.616Z,21.15
2016-04-18T11:25:33.602Z,21.15
2016-04-18T11:26:33.730Z,21.09
2016-04-18T11:27:33.576Z,21.13
2016-04-18T11:28:33.549Z,21.18
2016-04-18T11:29:33.551Z,21.28
2016-04-18T11:30:33.506Z,21.28
2016-04-18T11:31:33.352Z,21.26
2016-04-18T11:32:33.496Z,21.31
2016-04-18T11:33:33.468Z,21.26
2016-04-18T11:34:33.705Z,21.24
2016-04-18T11:35:33.426Z,21.22
2016-04-18T11:36:33.412Z,21.24
2016-04-18T11:37:33.243Z,21.21
2016-04-18T11:38:33.387Z,21.24
2016-04-18T11:39:33.374Z,21.21
2016-04-18T11:40:33.362Z,21.24
2016-04-18T11:41:33.333Z,21.13
2016-04-18T11:42:33.726Z,21.13
2016-04-18T11:43:33.306Z,21.33
2016-04-18T11:44:33.294Z,21.28
2016-04-18T11:47:33.224Z,21.18
2016-04-18T11:48:33.211Z,21
2016-04-18T11:49:33.042Z,20.91
2016-04-18T11:50:33.747Z,20.81
2016-04-18T11:51:33.172Z,20.98
2016-04-18T11:52:33.034Z,21.37
2016-04-18T11:53:33.147Z,21.73
2016-04-18T11:54:33.103Z,22.24
2016-04-18T11:55:33.089Z,22.84
2016-04-18T11:56:33.077Z,23.42
2016-04-18T11:57:33.063Z,24
2016-04-18T11:58:33.738Z,24.3
2016-04-18T11:59:33.037Z,24.82
2016-04-18T12:00:33.009Z,24.99
2016-04-18T12:01:32.996Z,25.27
2016-04-18T12:02:32.968Z,25.59
2016-04-18T12:03:32.970Z,25.74
2016-04-18T12:04:33.224Z,25.71
2016-04-18T12:05:32.928Z,25.72
2016-04-18T12:06:33.025Z,25.75
2016-04-18T12:07:32.903Z,25.71
2016-04-18T12:08:32.890Z,25.72
2016-04-18T12:09:32.862Z,25.63
2016-04-18T12:10:32.848Z,25.53
2016-04-18T12:15:32.783Z,25.09
2016-04-18T12:16:32.755Z,25.02
2016-04-18T12:17:32.758Z,25.09
2016-04-18T12:18:32.728Z,25.11
2016-04-18T12:19:32.716Z,25.07
2016-04-18T12:20:32.703Z,25.14
2016-04-18T12:21:32.722Z,25.14
2016-04-18T12:22:33.021Z,25.08
2016-04-18T12:23:32.681Z,25.01
2016-04-18T12:24:32.635Z,24.93
2016-04-18T12:25:32.622Z,24.87
2016-04-18T12:26:32.611Z,24.82
2016-04-18T12:27:32.613Z,24.74
2016-04-18T12:28:32.585Z,24.59
2016-04-18T12:29:32.619Z,24.52
2016-04-18T12:32:32.517Z,24.21
2016-04-18T12:33:32.504Z,24.06
2016-04-18T12:34:32.507Z,24
2016-04-18T12:35:32.494Z,23.84
2016-04-18T12:36:32.481Z,23.81
2016-04-18T12:37:32.640Z,23.68
2016-04-18T12:38:32.440Z,23.57
2016-04-18T12:39:32.410Z,23.39
2016-04-18T12:40:32.413Z,23.38
2016-04-18T12:41:32.385Z,23.38
2016-04-18T12:42:32.465Z,23.21
2016-04-18T12:43:32.359Z,23.16
2016-04-18T12:44:32.331Z,23.16
2016-04-18T12:45:32.661Z,23.16
2016-04-18T12:46:32.320Z,23.06
2016-04-18T12:47:32.292Z,23.07
2016-04-18T12:48:32.295Z,22.99
2016-04-18T12:49:32.266Z,22.94
2016-04-18T12:50:32.253Z,23.01
2016-04-18T12:51:32.256Z,22.89
2016-04-18T12:52:32.211Z,22.84
2016-04-18T12:53:32.652Z,22.86
2016-04-18T12:54:32.185Z,22.84
2016-04-18T12:55:32.157Z,22.76
2016-04-18T12:56:32.160Z,22.72
2016-04-18T12:57:32.146Z,22.74
2016-04-18T12:58:32.119Z,22.61
2016-04-18T12:59:31.949Z,22.6
2016-04-18T13:00:32.091Z,22.54
2016-04-18T13:01:32.674Z,22.56
2016-04-18T13:02:32.082Z,22.56
2016-04-18T13:03:32.054Z,22.51